logo
Search for airport 
image banner adimage banner adimage banner ad
image banner ad

FAPU - Paarl

Located in Paarl, South Africa

ICAO - FAPU, IATA -

Data provided by Airmate  

General information

Coordinates: S33°42'39" E19°1'30"
Elevation is 597 feet MSL.
 
View others Airports in Western Cape

Operational data

Special qualification required
Current time UTC:
Current local time:
Weather at : - ( 0 km )
METAR: CYMT 230518Z AUTO 10005KT 4SM -SN BKN037 BKN050 OVC066 M03/M04 A2966 RMK SLP068
View NOTAMs / SUP AIP / TFR affecting this airport [VIEW]
Communications frequencies: [VIEW]

Runways:

RWY identifierQFULength (ft)Width (ft)SurfaceLDA (ft)
12125°183733GRASS
30305°183733GRASS

Airport contact information

Address: Paarl South Africa

Satellite view of FAPU